Time;durP1;ratioP1;P1;durP2;ratioP2;P2;SDS_P1;SDS_P2;PMS_P1;PMS_P2;Temp;Humidity;BMP_temperature;BMP_pressure;BME280_temperature;BME280_humidity;BME280_pressure;Samples;Min_cycle;Max_cycle;Signal;HPM_P1;HPM_P2
2022/05/04 00:00:45;;;;;;;;;;;14.50;99.90;;;;;;5091628;28;20015;-85
2022/05/04 00:03:11;;;;;;;;;;;14.40;99.90;;;;;;5091534;28;19924;-85
2022/05/04 00:05:37;;;;;;;;;;;14.40;99.90;;;;;;5091145;28;20085;-86
2022/05/04 00:08:03;;;;;;;;;;;14.40;99.90;;;;;;5091241;28;19912;-85
2022/05/04 00:10:30;;;;;;;;;;;14.30;99.90;;;;;;5091177;28;20950;-85
2022/05/04 00:12:56;;;;;;;;;;;14.30;99.90;;;;;;5091099;28;20002;-85
2022/05/04 00:15:21;;;;;;;;;;;14.30;99.90;;;;;;5091249;28;20444;-85
2022/05/04 00:17:47;;;;;;;;;;;14.20;99.90;;;;;;5091233;28;20377;-85
2022/05/04 00:20:12;;;;;;;;;;;14.20;99.90;;;;;;5090696;28;19915;-85
2022/05/04 00:22:38;;;;;;;;;;;14.20;99.90;;;;;;5090810;28;19916;-85
2022/05/04 00:25:04;;;;;;;;;;;14.20;99.90;;;;;;5090783;28;20064;-85
2022/05/04 00:27:29;;;;;;;;;;;14.10;99.90;;;;;;5090924;28;20413;-85
2022/05/04 00:29:55;;;;;;;;;;;14.10;99.90;;;;;;5072557;28;19908;-85
2022/05/04 00:32:21;;;;;;;;;;;14.10;99.90;;;;;;5072644;28;19908;-85
2022/05/04 00:34:47;;;;;;;;;;;14.10;99.90;;;;;;5090412;28;19908;-85
2022/05/04 00:37:13;;;;;;;;;;;14.00;99.90;;;;;;5090773;28;20415;-85
2022/05/04 00:39:39;;;;;;;;;;;14.00;99.90;;;;;;5090549;28;19912;-85
2022/05/04 00:42:12;;;;;;;;;;;14.00;99.90;;;;;;5072418;28;20372;-85
2022/05/04 00:44:38;;;;;;;;;;;14.00;99.90;;;;;;5090605;28;19912;-85
2022/05/04 00:47:04;;;;;;;;;;;14.00;99.90;;;;;;5090438;28;19908;-85
2022/05/04 00:49:30;;;;;;;;;;;14.00;99.90;;;;;;5090367;28;20292;-86
2022/05/04 00:51:55;;;;;;;;;;;13.90;99.90;;;;;;5090508;28;20360;-85
2022/05/04 00:54:21;;;;;;;;;;;13.90;99.90;;;;;;5072466;28;19954;-85
2022/05/04 00:56:47;;;;;;;;;;;13.90;99.90;;;;;;5090583;28;19916;-84
2022/05/04 00:59:13;;;;;;;;;;;13.90;99.90;;;;;;5090269;28;19908;-85
2022/05/04 01:01:38;;;;;;;;;;;13.90;99.90;;;;;;5090103;28;19920;-85
2022/05/04 01:04:04;;;;;;;;;;;13.80;99.90;;;;;;5089852;28;19909;-85
2022/05/04 01:06:29;;;;;;;;;;;13.80;99.90;;;;;;5090482;28;19908;-85
2022/05/04 01:08:55;;;;;;;;;;;13.80;99.90;;;;;;5090685;28;19908;-85
2022/05/04 01:11:21;;;;;;;;;;;13.80;99.90;;;;;;5090497;28;19908;-85
2022/05/04 01:14:13;;;;;;;;;;;13.70;99.90;;;;;;5090875;28;19915;-85
2022/05/04 01:16:40;;;;;;;;;;;13.70;99.90;;;;;;5085235;28;19908;-86
2022/05/04 01:19:06;;;;;;;;;;;13.60;99.90;;;;;;5089898;28;19919;-85
2022/05/04 01:21:32;;;;;;;;;;;13.60;99.90;;;;;;5090176;28;19916;-87
2022/05/04 01:23:58;;;;;;;;;;;13.60;99.90;;;;;;5090320;28;19912;-84
2022/05/04 01:26:23;;;;;;;;;;;13.50;99.90;;;;;;5072045;28;20006;-85
2022/05/04 01:28:49;;;;;;;;;;;13.50;99.90;;;;;;5090267;28;19977;-84
2022/05/04 01:31:15;;;;;;;;;;;13.50;99.90;;;;;;5090298;28;19938;-85
2022/05/04 01:33:40;;;;;;;;;;;13.50;99.90;;;;;;5072772;28;19908;-83
2022/05/04 01:36:06;;;;;;;;;;;13.50;99.90;;;;;;5071611;28;19950;-86
2022/05/04 01:38:32;;;;;;;;;;;13.50;99.90;;;;;;5071927;28;19916;-84
2022/05/04 01:40:58;;;;;;;;;;;13.40;99.90;;;;;;5090015;28;20473;-84
2022/05/04 01:43:24;;;;;;;;;;;13.40;99.90;;;;;;5071919;28;19942;-84
2022/05/04 01:45:49;;;;;;;;;;;13.40;99.90;;;;;;5090320;28;20399;-84
2022/05/04 01:48:15;;;;;;;;;;;13.40;99.90;;;;;;5090045;28;19939;-84
2022/05/04 01:50:40;;;;;;;;;;;13.40;99.90;;;;;;5089685;28;19909;-84
2022/05/04 01:53:06;;;;;;;;;;;13.40;99.90;;;;;;5089910;28;19908;-84
2022/05/04 01:55:35;;;;;;;;;;;13.40;99.90;;;;;;5071751;28;19908;-84
2022/05/04 01:58:04;;;;;;;;;;;13.40;99.90;;;;;;5071570;28;19912;-84
2022/05/04 02:00:30;;;;;;;;;;;13.40;99.90;;;;;;5089874;28;19908;-84
2022/05/04 02:02:55;;;;;;;;;;;13.40;99.90;;;;;;5089734;28;19931;-84
2022/05/04 02:05:21;;;;;;;;;;;13.30;99.90;;;;;;5071297;28;19908;-85
2022/05/04 02:07:48;;;;;;;;;;;13.30;99.90;;;;;;5071750;28;19908;-85
2022/05/04 02:10:13;;;;;;;;;;;13.30;99.90;;;;;;5091901;28;19914;-85
2022/05/04 02:12:39;;;;;;;;;;;13.30;99.90;;;;;;5093506;28;19908;-84
2022/05/04 02:15:05;;;;;;;;;;;13.20;99.90;;;;;;5093772;28;19908;-85
2022/05/04 02:17:31;;;;;;;;;;;13.20;99.90;;;;;;5093347;28;19908;-84
2022/05/04 02:19:57;;;;;;;;;;;13.10;99.90;;;;;;5092974;28;19908;-84
2022/05/04 02:22:22;;;;;;;;;;;13.10;99.90;;;;;;5093195;28;19916;-84
2022/05/04 02:24:48;;;;;;;;;;;13.10;99.90;;;;;;5093573;28;19915;-84
2022/05/04 02:27:13;;;;;;;;;;;13.10;99.90;;;;;;5093405;28;20373;-84
2022/05/04 02:29:39;;;;;;;;;;;13.10;99.90;;;;;;5093034;28;20384;-84
2022/05/04 02:32:05;;;;;;;;;;;13.10;99.90;;;;;;5093125;28;19945;-84
2022/05/04 02:34:30;;;;;;;;;;;13.10;99.90;;;;;;5074387;28;20272;-84
2022/05/04 02:39:40;;;;;;;;;;;13.10;99.90;;;;;;5093202;28;20759;-84
2022/05/04 02:42:06;;;;;;;;;;;13.10;99.90;;;;;;5092971;28;20014;-84
2022/05/04 02:44:31;;;;;;;;;;;13.00;99.90;;;;;;5074864;28;19959;-84
2022/05/04 02:46:57;;;;;;;;;;;13.10;99.90;;;;;;5074741;28;20061;-85
2022/05/04 02:49:22;;;;;;;;;;;13.00;99.90;;;;;;5074297;28;19912;-84
2022/05/04 02:51:48;;;;;;;;;;;13.00;99.90;;;;;;5092772;28;19915;-85
2022/05/04 02:54:13;;;;;;;;;;;13.00;99.90;;;;;;5076603;28;19931;-84
2022/05/04 02:56:39;;;;;;;;;;;13.00;99.90;;;;;;5074650;28;19915;-84
2022/05/04 02:59:04;;;;;;;;;;;13.00;99.90;;;;;;5074572;28;19995;-85
2022/05/04 03:04:14;;;;;;;;;;;13.00;99.90;;;;;;5092539;28;19923;-85
2022/05/04 03:06:40;;;;;;;;;;;13.00;99.90;;;;;;5092576;28;19916;-84
2022/05/04 03:09:06;;;;;;;;;;;13.00;99.90;;;;;;5092342;28;19915;-84
2022/05/04 03:14:20;;;;;;;;;;;13.00;99.90;;;;;;5092582;28;19919;-84
2022/05/04 03:16:46;;;;;;;;;;;12.90;99.90;;;;;;5092427;28;19919;-84
2022/05/04 03:19:12;;;;;;;;;;;12.90;99.90;;;;;;5091856;28;19908;-85
2022/05/04 03:21:37;;;;;;;;;;;12.90;99.90;;;;;;5092274;28;19908;-84
2022/05/04 03:24:03;;;;;;;;;;;12.90;99.90;;;;;;5074081;28;20371;-85
2022/05/04 03:26:29;;;;;;;;;;;12.90;99.90;;;;;;5092136;28;19908;-85
2022/05/04 03:28:55;;;;;;;;;;;12.90;99.90;;;;;;5092032;28;19908;-84
2022/05/04 03:31:21;;;;;;;;;;;12.90;99.90;;;;;;5073864;28;19994;-85
2022/05/04 03:33:46;;;;;;;;;;;12.90;99.90;;;;;;5074185;28;20007;-84
2022/05/04 03:36:12;;;;;;;;;;;12.80;99.90;;;;;;5091669;28;19908;-85
2022/05/04 03:38:37;;;;;;;;;;;12.90;99.90;;;;;;5092097;28;20424;-86
2022/05/04 03:41:03;;;;;;;;;;;12.90;99.90;;;;;;5073688;28;20291;-85
2022/05/04 03:43:28;;;;;;;;;;;12.80;99.90;;;;;;5092092;28;20379;-86
2022/05/04 03:45:54;;;;;;;;;;;12.90;99.90;;;;;;5091715;28;19908;-85
2022/05/04 03:48:20;;;;;;;;;;;12.90;99.90;;;;;;5091927;28;20405;-85
2022/05/04 03:50:46;;;;;;;;;;;13.00;99.90;;;;;;5073177;28;19908;-85
2022/05/04 03:53:15;;;;;;;;;;;13.00;99.90;;;;;;5073499;28;19908;-85
2022/05/04 03:55:41;;;;;;;;;;;12.90;99.90;;;;;;5091748;28;19953;-85
2022/05/04 03:58:06;;;;;;;;;;;12.90;99.90;;;;;;5073621;28;20007;-84
2022/05/04 04:00:32;;;;;;;;;;;12.80;99.90;;;;;;5085013;28;20156;-85
2022/05/04 04:02:57;;;;;;;;;;;12.90;99.90;;;;;;5073019;28;19920;-85
2022/05/04 04:05:23;;;;;;;;;;;12.90;99.90;;;;;;5090999;28;19919;-85
2022/05/04 04:07:49;;;;;;;;;;;12.90;99.90;;;;;;5091461;28;19915;-85
2022/05/04 04:10:15;;;;;;;;;;;12.80;99.90;;;;;;5091461;28;19915;-85
2022/05/04 04:12:40;;;;;;;;;;;12.80;99.90;;;;;;5091493;28;19923;-84
2022/05/04 04:15:06;;;;;;;;;;;12.80;99.90;;;;;;5091248;28;20368;-85
2022/05/04 04:17:31;;;;;;;;;;;12.80;99.90;;;;;;5072914;28;19908;-84
2022/05/04 04:22:41;;;;;;;;;;;12.70;99.90;;;;;;5091317;28;20392;-85
2022/05/04 04:25:07;;;;;;;;;;;12.70;99.90;;;;;;5091016;28;19947;-85
2022/05/04 04:27:34;;;;;;;;;;;12.70;99.90;;;;;;5090422;28;19944;-85
2022/05/04 04:30:00;;;;;;;;;;;12.70;99.90;;;;;;5091088;28;19908;-84
2022/05/04 04:32:25;;;;;;;;;;;12.70;99.90;;;;;;5090463;28;19916;-85
2022/05/04 04:34:51;;;;;;;;;;;12.60;99.90;;;;;;5090639;28;20421;-84
2022/05/04 04:37:16;;;;;;;;;;;12.70;99.90;;;;;;5072738;28;19912;-85
2022/05/04 04:39:42;;;;;;;;;;;12.60;99.90;;;;;;5090977;28;20298;-84
2022/05/04 04:42:08;;;;;;;;;;;12.60;99.90;;;;;;5072513;28;20376;-85
2022/05/04 04:44:33;;;;;;;;;;;12.60;99.90;;;;;;5090881;28;19908;-84
2022/05/04 04:46:59;;;;;;;;;;;12.50;99.90;;;;;;5090711;28;19918;-85
2022/05/04 04:49:25;;;;;;;;;;;12.50;99.90;;;;;;5090467;28;19919;-84
2022/05/04 04:51:51;;;;;;;;;;;12.50;99.90;;;;;;5072465;28;19912;-85
2022/05/04 04:54:17;;;;;;;;;;;12.50;99.90;;;;;;5090678;28;19947;-85
2022/05/04 04:56:42;;;;;;;;;;;12.50;99.90;;;;;;5090707;28;19908;-85
2022/05/04 04:59:08;;;;;;;;;;;12.50;99.90;;;;;;5073708;28;19908;-84
2022/05/04 05:01:33;;;;;;;;;;;12.50;99.90;;;;;;5092914;28;20377;-85
2022/05/04 05:03:59;;;;;;;;;;;12.50;99.90;;;;;;5090249;28;19908;-85
2022/05/04 05:06:25;;;;;;;;;;;12.50;99.90;;;;;;5072731;28;20502;-85
2022/05/04 05:08:50;;;;;;;;;;;12.50;99.90;;;;;;5090598;28;19912;-85
2022/05/04 05:11:16;;;;;;;;;;;12.50;99.90;;;;;;5090620;28;19912;-85
2022/05/04 05:16:26;;;;;;;;;;;12.50;99.90;;;;;;5086551;28;20271;-85
2022/05/04 05:18:51;;;;;;;;;;;12.50;99.90;;;;;;5071748;28;19995;-85
2022/05/04 05:21:17;;;;;;;;;;;12.50;99.90;;;;;;5090425;28;20011;-85
2022/05/04 05:23:43;;;;;;;;;;;12.60;99.90;;;;;;5090652;28;19952;-85
2022/05/04 05:26:08;;;;;;;;;;;12.60;99.90;;;;;;5090525;28;19940;-81
2022/05/04 05:28:34;;;;;;;;;;;12.70;99.90;;;;;;5090647;28;19908;-82
2022/05/04 05:30:59;;;;;;;;;;;12.70;99.90;;;;;;5090477;28;19916;-81
2022/05/04 05:33:25;;;;;;;;;;;12.70;99.90;;;;;;5086888;28;19912;-82
2022/05/04 05:35:50;;;;;;;;;;;12.70;99.90;;;;;;5089569;28;19965;-82
2022/05/04 05:38:16;;;;;;;;;;;12.70;99.90;;;;;;5089601;28;19959;-82
2022/05/04 05:40:42;;;;;;;;;;;12.80;99.90;;;;;;5089938;28;20395;-82
2022/05/04 05:43:08;;;;;;;;;;;12.80;99.90;;;;;;5089667;28;20326;-82
2022/05/04 05:45:33;;;;;;;;;;;12.80;99.90;;;;;;5073311;28;20064;-82
2022/05/04 05:47:59;;;;;;;;;;;12.80;99.90;;;;;;5093671;28;20149;-82
2022/05/04 05:50:24;;;;;;;;;;;12.80;99.90;;;;;;5093030;28;19938;-82
2022/05/04 05:52:50;;;;;;;;;;;12.70;99.90;;;;;;5092931;28;19924;-82
2022/05/04 05:55:16;;;;;;;;;;;12.80;99.90;;;;;;5093947;28;19908;-82
2022/05/04 05:57:41;;;;;;;;;;;12.90;99.90;;;;;;5076666;28;19908;-82
2022/05/04 06:00:07;;;;;;;;;;;13.00;99.90;;;;;;5096765;28;19915;-82
2022/05/04 06:02:33;;;;;;;;;;;13.10;99.90;;;;;;5072372;28;19931;-82
2022/05/04 06:04:58;;;;;;;;;;;13.10;99.90;;;;;;5073414;28;19931;-83
2022/05/04 06:07:24;;;;;;;;;;;13.10;99.90;;;;;;5073525;28;19908;-82
2022/05/04 06:09:50;;;;;;;;;;;13.20;99.90;;;;;;5073341;28;19955;-82
2022/05/04 06:12:16;;;;;;;;;;;13.20;99.90;;;;;;5073206;28;19923;-82
2022/05/04 06:14:41;;;;;;;;;;;13.20;99.90;;;;;;5074548;28;19930;-82
2022/05/04 06:17:07;;;;;;;;;;;13.20;99.90;;;;;;5075150;28;19978;-83
2022/05/04 06:19:32;;;;;;;;;;;13.30;99.90;;;;;;5073573;28;19931;-83
2022/05/04 06:21:58;;;;;;;;;;;13.20;99.90;;;;;;5075203;28;20028;-82
2022/05/04 06:24:26;;;;;;;;;;;13.30;99.90;;;;;;5073122;28;19970;-83
2022/05/04 06:26:52;;;;;;;;;;;13.40;99.90;;;;;;5066734;28;19963;-83
2022/05/04 06:29:17;;;;;;;;;;;13.40;99.90;;;;;;5072666;28;19947;-83
2022/05/04 06:34:27;;;;;;;;;;;13.60;99.90;;;;;;5072559;28;20296;-83
2022/05/04 06:36:52;;;;;;;;;;;13.70;99.90;;;;;;5072929;28;19909;-83
2022/05/04 06:39:18;;;;;;;;;;;13.80;99.90;;;;;;5071672;28;19908;-82
2022/05/04 06:41:43;;;;;;;;;;;13.80;99.90;;;;;;5073463;28;19908;-82
2022/05/04 06:44:09;;;;;;;;;;;14.00;99.90;;;;;;5072877;28;19919;-82
2022/05/04 06:46:38;;;;;;;;;;;14.00;99.90;;;;;;5072914;28;19991;-83
2022/05/04 06:49:04;;;;;;;;;;;14.10;99.90;;;;;;5071387;28;20315;-82
2022/05/04 06:51:29;;;;;;;;;;;14.10;99.90;;;;;;5072730;28;19909;-83
2022/05/04 06:53:55;;;;;;;;;;;14.10;99.90;;;;;;5072639;28;20300;-82
2022/05/04 06:56:20;;;;;;;;;;;14.20;99.90;;;;;;5072340;28;19935;-83
2022/05/04 06:58:47;;;;;;;;;;;14.20;99.90;;;;;;5072656;28;19915;-83
2022/05/04 07:01:13;;;;;;;;;;;14.20;99.90;;;;;;5073493;28;19979;-82
2022/05/04 07:03:38;;;;;;;;;;;14.20;99.90;;;;;;5092534;28;19912;-82
2022/05/04 07:06:04;;;;;;;;;;;14.30;99.90;;;;;;5092594;28;19908;-82
2022/05/04 07:08:30;;;;;;;;;;;14.30;99.90;;;;;;5092392;28;19912;-82
2022/05/04 07:10:56;;;;;;;;;;;14.50;99.90;;;;;;5092490;28;19961;-82
2022/05/04 07:13:21;;;;;;;;;;;14.60;99.90;;;;;;5092296;28;19942;-82
2022/05/04 07:15:47;;;;;;;;;;;14.60;99.90;;;;;;5092539;28;20327;-82
2022/05/04 07:18:12;;;;;;;;;;;14.70;99.90;;;;;;5092269;28;19912;-82
2022/05/04 07:20:38;;;;;;;;;;;14.80;99.90;;;;;;5092506;28;20254;-82
2022/05/04 07:23:03;;;;;;;;;;;14.90;99.90;;;;;;5092781;28;20345;-82
2022/05/04 07:25:29;;;;;;;;;;;15.00;99.90;;;;;;5073941;28;19908;-82
2022/05/04 07:27:54;;;;;;;;;;;15.10;99.90;;;;;;5092435;28;19908;-82
2022/05/04 07:30:20;;;;;;;;;;;15.10;99.90;;;;;;5092024;28;20291;-82
2022/05/04 07:32:46;;;;;;;;;;;15.20;99.90;;;;;;5091974;28;20288;-82
2022/05/04 07:35:12;;;;;;;;;;;15.30;99.90;;;;;;5091689;28;20323;-82
2022/05/04 07:37:37;;;;;;;;;;;15.30;99.90;;;;;;5092103;28;19908;-82
2022/05/04 07:42:47;;;;;;;;;;;15.50;99.90;;;;;;5092323;28;19937;-82
2022/05/04 07:45:15;;;;;;;;;;;15.60;99.90;;;;;;5091636;28;19908;-82
2022/05/04 07:47:40;;;;;;;;;;;15.60;99.90;;;;;;5091754;28;19999;-82
2022/05/04 07:50:07;;;;;;;;;;;15.70;99.90;;;;;;5091343;28;19995;-82
2022/05/04 07:52:33;;;;;;;;;;;15.70;99.90;;;;;;5091466;28;19981;-82
2022/05/04 07:54:59;;;;;;;;;;;15.70;99.90;;;;;;5073518;28;20369;-82
2022/05/04 07:57:24;;;;;;;;;;;15.70;99.90;;;;;;5091781;28;19948;-83
2022/05/04 08:05:23;;;;;;;;;;;16.00;99.90;;;;;;5091520;28;19977;-82
2022/05/04 08:07:48;;;;;;;;;;;16.20;99.90;;;;;;5072589;28;20368;-82
2022/05/04 08:10:14;;;;;;;;;;;16.30;99.90;;;;;;5091341;28;20367;-83
2022/05/04 08:12:39;;;;;;;;;;;16.50;99.90;;;;;;5091183;28;20410;-82
2022/05/04 08:15:05;;;;;;;;;;;16.60;99.90;;;;;;5072855;28;19908;-83
2022/05/04 08:17:31;;;;;;;;;;;16.60;99.90;;;;;;5091316;28;19915;-82
2022/05/04 08:19:58;;;;;;;;;;;16.60;99.90;;;;;;5090917;28;19908;-82
2022/05/04 08:22:23;;;;;;;;;;;16.60;99.90;;;;;;5091206;28;19916;-82
2022/05/04 08:24:49;;;;;;;;;;;16.70;99.90;;;;;;5091259;28;19908;-82
2022/05/04 08:27:14;;;;;;;;;;;16.80;99.90;;;;;;5091163;28;19916;-83
2022/05/04 08:29:40;;;;;;;;;;;16.70;99.90;;;;;;5091080;28;19916;-82
2022/05/04 08:32:06;;;;;;;;;;;16.80;99.90;;;;;;5090861;28;20376;-82
2022/05/04 08:34:31;;;;;;;;;;;16.70;99.90;;;;;;5090466;28;19955;-82
2022/05/04 08:36:57;;;;;;;;;;;16.70;99.90;;;;;;5090776;28;19915;-83
2022/05/04 08:39:23;;;;;;;;;;;16.80;99.90;;;;;;5091023;28;19908;-83
2022/05/04 08:41:48;;;;;;;;;;;16.90;99.90;;;;;;5090916;28;19908;-82
2022/05/04 08:44:14;;;;;;;;;;;17.00;99.90;;;;;;5090853;28;19912;-82
2022/05/04 08:46:43;;;;;;;;;;;17.10;99.90;;;;;;5072827;28;19909;-82
2022/05/04 08:49:11;;;;;;;;;;;17.10;99.90;;;;;;5090353;28;20372;-82
2022/05/04 08:51:37;;;;;;;;;;;17.00;99.90;;;;;;5072904;28;20326;-82
2022/05/04 08:54:03;;;;;;;;;;;16.90;99.90;;;;;;5090685;28;19916;-82
2022/05/04 08:56:29;;;;;;;;;;;17.10;99.90;;;;;;5090672;28;20300;-82
2022/05/04 08:58:54;;;;;;;;;;;17.20;99.90;;;;;;5090807;28;19915;-83
2022/05/04 09:01:20;;;;;;;;;;;17.10;99.90;;;;;;5090300;28;20345;-83
2022/05/04 09:03:45;;;;;;;;;;;17.10;99.90;;;;;;5072334;28;20441;-83
2022/05/04 09:06:23;;;;;;;;;;;17.20;99.90;;;;;;5090619;28;19908;-82
2022/05/04 09:08:55;;;;;;;;;;;17.20;99.90;;;;;;5090769;28;19915;-83
2022/05/04 09:11:22;;;;;;;;;;;17.10;99.90;;;;;;5090406;28;19920;-82
2022/05/04 09:13:48;;;;;;;;;;;17.00;99.90;;;;;;5090343;28;20393;-83
2022/05/04 09:16:30;;;;;;;;;;;17.10;99.90;;;;;;5090531;28;20037;-83
2022/05/04 09:18:55;;;;;;;;;;;17.20;99.90;;;;;;5091819;28;19915;-83
2022/05/04 09:21:22;;;;;;;;;;;17.40;99.90;;;;;;5094645;28;20279;-83
2022/05/04 09:23:54;;;;;;;;;;;17.40;99.90;;;;;;5094756;28;19908;-83
2022/05/04 09:26:20;;;;;;;;;;;17.50;99.90;;;;;;5094646;28;19977;-82
2022/05/04 09:28:50;;;;;;;;;;;17.40;99.90;;;;;;5076391;28;19924;-83
2022/05/04 09:31:18;;;;;;;;;;;17.30;99.90;;;;;;5094446;28;19916;-83
2022/05/04 09:33:51;;;;;;;;;;;17.40;99.90;;;;;;5093954;28;20155;-83
2022/05/04 09:36:28;;;;;;;;;;;17.50;99.90;;;;;;5094259;28;19932;-83
2022/05/04 09:47:16;;;;;;;;;;;17.60;99.90;;;;;;5094615;28;20322;-83
2022/05/04 09:49:41;;;;;;;;;;;17.60;99.90;;;;;;5094032;28;20357;-83
2022/05/04 09:52:07;;;;;;;;;;;17.60;99.90;;;;;;5075697;28;19964;-82
2022/05/04 09:54:32;;;;;;;;;;;17.50;99.90;;;;;;5093984;28;20334;-83
2022/05/04 09:57:03;;;;;;;;;;;17.40;99.90;;;;;;5093664;28;19908;-83
2022/05/04 09:59:29;;;;;;;;;;;17.50;99.90;;;;;;5093986;28;19908;-83
2022/05/04 10:01:55;;;;;;;;;;;17.60;99.90;;;;;;5093380;28;19939;-83
2022/05/04 10:04:23;;;;;;;;;;;17.90;99.90;;;;;;5075221;28;19912;-83
2022/05/04 10:06:49;;;;;;;;;;;18.00;99.90;;;;;;5093961;28;19908;-83
2022/05/04 10:09:15;;;;;;;;;;;18.10;99.90;;;;;;5093770;28;19953;-82
2022/05/04 10:11:40;;;;;;;;;;;18.20;99.90;;;;;;5075559;28;19908;-83
2022/05/04 10:14:15;;;;;;;;;;;18.20;99.90;;;;;;5093502;28;19959;-82
2022/05/04 10:16:46;;;;;;;;;;;18.10;99.90;;;;;;5093732;28;19919;-83
2022/05/04 10:19:16;;;;;;;;;;;18.20;99.90;;;;;;5093045;28;20384;-84
2022/05/04 10:21:42;;;;;;;;;;;18.30;99.90;;;;;;5093541;28;20002;-84
2022/05/04 10:24:09;;;;;;;;;;;18.50;99.90;;;;;;5075146;28;19915;-83
2022/05/04 10:26:35;;;;;;;;;;;18.60;99.90;;;;;;5093630;28;20135;-84
2022/05/04 10:32:03;;;;;;;;;;;18.50;99.90;;;;;;5088244;28;20357;-83
2022/05/04 10:34:28;;;;;;;;;;;18.70;99.90;;;;;;5074543;28;19995;-83
2022/05/04 10:36:54;;;;;;;;;;;18.80;99.90;;;;;;5093071;28;19943;-83
2022/05/04 10:39:21;;;;;;;;;;;18.90;99.90;;;;;;5074771;28;19947;-83
2022/05/04 10:41:47;;;;;;;;;;;19.10;99.90;;;;;;5093149;28;19909;-85
2022/05/04 10:44:13;;;;;;;;;;;19.30;99.90;;;;;;5093152;28;19961;-84
2022/05/04 10:46:40;;;;;;;;;;;19.30;99.90;;;;;;5093292;28;19909;-83
2022/05/04 10:49:08;;;;;;;;;;;19.40;99.90;;;;;;5092595;28;19908;-83
2022/05/04 10:51:35;;;;;;;;;;;19.40;99.70;;;;;;5093088;28;19912;-84
2022/05/04 10:54:04;;;;;;;;;;;19.30;99.90;;;;;;5092847;28;19942;-84
2022/05/04 10:56:56;;;;;;;;;;;19.40;99.90;;;;;;5086750;28;19982;-83
2022/05/04 10:59:36;;;;;;;;;;;19.60;99.10;;;;;;5087538;28;20139;-83
2022/05/04 11:02:06;;;;;;;;;;;19.90;99.10;;;;;;5092551;28;19920;-82
2022/05/04 11:04:32;;;;;;;;;;;19.70;99.20;;;;;;5092427;28;19915;-83
2022/05/04 11:06:58;;;;;;;;;;;19.60;99.20;;;;;;5092779;28;19908;-83
2022/05/04 11:09:31;;;;;;;;;;;19.80;98.80;;;;;;5092618;28;20394;-83
2022/05/04 11:11:57;;;;;;;;;;;19.80;98.40;;;;;;5092577;28;19908;-83
2022/05/04 11:14:23;;;;;;;;;;;19.70;98.40;;;;;;5092431;28;20037;-83
2022/05/04 11:16:53;;;;;;;;;;;19.70;98.70;;;;;;5092468;28;19935;-83
2022/05/04 11:19:19;;;;;;;;;;;19.90;97.70;;;;;;5091828;28;19915;-82
2022/05/04 11:21:45;;;;;;;;;;;20.30;96.90;;;;;;5074045;28;19908;-83
2022/05/04 11:24:12;;;;;;;;;;;20.30;97.50;;;;;;5092222;28;19919;-83
2022/05/04 11:26:37;;;;;;;;;;;20.50;97.00;;;;;;5073826;28;20386;-83
2022/05/04 11:29:07;;;;;;;;;;;20.70;96.70;;;;;;5073894;28;20014;-83
2022/05/04 11:31:32;;;;;;;;;;;21.00;96.80;;;;;;5092272;28;19908;-83
2022/05/04 11:33:58;;;;;;;;;;;21.00;96.20;;;;;;5073682;28;20343;-83
2022/05/04 11:36:23;;;;;;;;;;;21.00;96.20;;;;;;5091744;28;19951;-83
2022/05/04 11:38:49;;;;;;;;;;;21.00;95.90;;;;;;5091998;28;20139;-83
2022/05/04 11:41:15;;;;;;;;;;;21.20;96.10;;;;;;5091441;28;19952;-83
2022/05/04 11:43:41;;;;;;;;;;;21.40;95.30;;;;;;5091225;28;19919;-83
2022/05/04 11:46:09;;;;;;;;;;;21.40;95.10;;;;;;5092007;28;19908;-83
2022/05/04 11:48:37;;;;;;;;;;;21.00;95.10;;;;;;5091535;28;19998;-83
2022/05/04 11:51:04;;;;;;;;;;;20.90;95.50;;;;;;5091883;28;19908;-83
2022/05/04 11:53:30;;;;;;;;;;;20.80;95.30;;;;;;5073417;28;19916;-83
2022/05/04 11:55:59;;;;;;;;;;;20.50;95.10;;;;;;5073534;28;19923;-83
2022/05/04 11:58:26;;;;;;;;;;;20.30;95.00;;;;;;5091543;28;19908;-83
2022/05/04 12:00:51;;;;;;;;;;;20.00;96.10;;;;;;5091478;28;19908;-83
2022/05/04 12:03:17;;;;;;;;;;;19.90;95.70;;;;;;5072718;28;19927;-83
2022/05/04 12:05:43;;;;;;;;;;;19.80;97.70;;;;;;5091656;28;19912;-83
2022/05/04 12:08:09;;;;;;;;;;;19.90;98.10;;;;;;5091532;28;20443;-83
2022/05/04 12:10:35;;;;;;;;;;;19.90;97.70;;;;;;5091715;28;19908;-83
2022/05/04 12:13:02;;;;;;;;;;;20.10;99.10;;;;;;5091406;28;19986;-83
2022/05/04 12:15:28;;;;;;;;;;;20.40;97.50;;;;;;5091375;28;19915;-83
2022/05/04 12:17:58;;;;;;;;;;;20.60;97.40;;;;;;5091337;28;19908;-83
2022/05/04 12:20:23;;;;;;;;;;;20.60;97.40;;;;;;5090716;28;19919;-83
2022/05/04 12:22:49;;;;;;;;;;;20.80;97.30;;;;;;5091064;28;19938;-85
2022/05/04 12:25:15;;;;;;;;;;;20.50;96.80;;;;;;5091213;28;19952;-85
2022/05/04 12:27:42;;;;;;;;;;;20.60;97.20;;;;;;5091332;28;19981;-86
2022/05/04 12:33:08;;;;;;;;;;;21.10;96.30;;;;;;5091237;28;19923;-85
2022/05/04 12:35:43;;;;;;;;;;;20.70;97.20;;;;;;5090914;28;19912;-83
2022/05/04 12:38:15;;;;;;;;;;;20.50;97.60;;;;;;5091137;28;19916;-83
2022/05/04 12:40:41;;;;;;;;;;;20.70;96.70;;;;;;5090802;28;20305;-83
2022/05/04 12:43:07;;;;;;;;;;;20.70;96.50;;;;;;5090762;28;20004;-83
2022/05/04 12:45:34;;;;;;;;;;;20.50;96.40;;;;;;5091259;28;19914;-83
2022/05/04 12:47:59;;;;;;;;;;;20.50;97.30;;;;;;5072885;28;19915;-83
2022/05/04 12:50:27;;;;;;;;;;;20.70;96.00;;;;;;5090535;28;19909;-84
2022/05/04 12:52:53;;;;;;;;;;;20.90;96.70;;;;;;5090826;28;20376;-84
2022/05/04 12:55:18;;;;;;;;;;;21.40;95.60;;;;;;5090709;28;19908;-83
2022/05/04 12:57:44;;;;;;;;;;;21.50;96.30;;;;;;5090684;28;20420;-83
2022/05/04 13:00:12;;;;;;;;;;;21.60;95.30;;;;;;5090661;28;19950;-83
2022/05/04 13:02:42;;;;;;;;;;;21.30;96.10;;;;;;5090289;28;19973;-83
2022/05/04 13:05:10;;;;;;;;;;;21.00;96.70;;;;;;5089577;28;20460;-83
2022/05/04 13:07:36;;;;;;;;;;;20.50;96.20;;;;;;5090654;28;20402;-84
2022/05/04 13:10:04;;;;;;;;;;;20.30;96.70;;;;;;5090586;28;19952;-83
2022/05/04 13:12:30;;;;;;;;;;;20.50;96.50;;;;;;5090440;28;19958;-83
2022/05/04 13:14:55;;;;;;;;;;;20.70;96.30;;;;;;5090553;28;19916;-83
2022/05/04 13:17:21;;;;;;;;;;;21.30;95.10;;;;;;5090608;28;20337;-83
2022/05/04 13:19:47;;;;;;;;;;;21.40;94.60;;;;;;5090006;28;19912;-83
2022/05/04 13:22:12;;;;;;;;;;;21.60;94.50;;;;;;5090302;28;19908;-83
2022/05/04 13:24:38;;;;;;;;;;;21.70;93.90;;;;;;5089965;28;19971;-83
2022/05/04 13:27:04;;;;;;;;;;;21.80;93.40;;;;;;5072031;28;19909;-83
2022/05/04 13:29:29;;;;;;;;;;;21.90;94.00;;;;;;5090466;28;19912;-83
2022/05/04 13:31:55;;;;;;;;;;;21.70;94.00;;;;;;5072607;28;20300;-83
2022/05/04 13:34:20;;;;;;;;;;;21.80;93.60;;;;;;5089935;28;20288;-83
2022/05/04 13:36:46;;;;;;;;;;;22.00;93.50;;;;;;5090665;28;20285;-84
2022/05/04 13:39:11;;;;;;;;;;;22.00;92.80;;;;;;5090301;28;20380;-83
2022/05/04 13:41:37;;;;;;;;;;;21.60;93.90;;;;;;5072050;28;19908;-83
2022/05/04 13:44:03;;;;;;;;;;;21.40;94.60;;;;;;5090150;28;19920;-83
2022/05/04 13:46:28;;;;;;;;;;;21.40;94.80;;;;;;5090060;28;19908;-83
2022/05/04 13:48:56;;;;;;;;;;;22.00;94.60;;;;;;5071554;28;19984;-83
2022/05/04 13:54:07;;;;;;;;;;;22.50;93.10;;;;;;5090205;28;20008;-83
2022/05/04 13:56:33;;;;;;;;;;;22.50;92.90;;;;;;5090143;28;19962;-86
2022/05/04 13:58:58;;;;;;;;;;;22.30;93.00;;;;;;5090268;28;19908;-86
2022/05/04 14:01:24;;;;;;;;;;;21.70;93.70;;;;;;5071709;28;19908;-86
2022/05/04 14:03:50;;;;;;;;;;;21.30;94.30;;;;;;5089645;28;19916;-86
2022/05/04 14:06:17;;;;;;;;;;;20.60;96.60;;;;;;5091956;28;19914;-86
2022/05/04 14:08:43;;;;;;;;;;;20.00;98.10;;;;;;5075395;28;19908;-85
2022/05/04 14:11:09;;;;;;;;;;;19.40;99.40;;;;;;5093877;28;19914;-86
2022/05/04 14:13:34;;;;;;;;;;;19.00;99.60;;;;;;5093623;28;19916;-85
2022/05/04 14:16:00;;;;;;;;;;;18.80;99.90;;;;;;5093590;28;19912;-83
2022/05/04 14:18:27;;;;;;;;;;;18.80;99.90;;;;;;5093206;28;20280;-83
2022/05/04 14:20:52;;;;;;;;;;;18.80;99.90;;;;;;5093448;28;19925;-83
2022/05/04 14:23:21;;;;;;;;;;;18.90;99.90;;;;;;5093258;28;20029;-83
2022/05/04 14:25:46;;;;;;;;;;;18.90;99.90;;;;;;5093448;28;19912;-83
2022/05/04 14:28:12;;;;;;;;;;;18.80;99.90;;;;;;5093203;28;19908;-84
2022/05/04 14:30:39;;;;;;;;;;;19.10;99.90;;;;;;5093462;28;19908;-83
2022/05/04 14:33:05;;;;;;;;;;;19.20;99.60;;;;;;5092970;28;19916;-83
2022/05/04 14:35:31;;;;;;;;;;;19.70;99.20;;;;;;5092822;28;19908;-83
2022/05/04 14:37:57;;;;;;;;;;;19.90;98.70;;;;;;5093433;28;20437;-83
2022/05/04 14:40:23;;;;;;;;;;;20.00;98.20;;;;;;5093161;28;19995;-84
2022/05/04 14:42:51;;;;;;;;;;;20.00;98.20;;;;;;5093120;28;19915;-83
2022/05/04 14:45:17;;;;;;;;;;;20.20;98.30;;;;;;5074690;28;19919;-83
2022/05/04 14:47:42;;;;;;;;;;;20.30;98.00;;;;;;5092829;28;19908;-83
2022/05/04 14:50:08;;;;;;;;;;;20.30;98.20;;;;;;5074452;28;20002;-83
2022/05/04 14:52:33;;;;;;;;;;;20.10;97.70;;;;;;5074914;28;19923;-83